Weather at Jiggalong Mission Airport

Public forecast

Using degrees Celsius for public forecast. Weather courtesy of forecast.io.

Closest aviation weather report (METAR) to Jiggalong Mission Airport

Closest report is Port Hedland International Airport, 216.0 nm (400.0 km) NW.

2024/05/30 09:00 (retrieved 17 minutes ago)

YPPD 300900Z AUTO 01009KT 9999 // NCD 25/16 Q1014 RF000/0000

Closest aviation forecast (TAF) to Jiggalong Mission Airport

Closest forecast is Port Hedland International Airport, 216.0 nm (400.0 km) NW.

2024/05/30 06:36 (retrieved 3 hours ago)

TAF YPPD 300523Z 3006/3106 10008KT CAVOK FM300900 06008KT CAVOK FM301200 10006KT CAVOK FM301600 15008KT CAVOK FM310000 10016G26KT CAVOK FM310300 10014KT CAVOK